• Join FlightAware (Why Join?)
  • Login
  • US Flag 
06:24AM EDT


 

Airport Tracker/Info


-or-


 

Live Flight TrackerFlight Track Log ✈ N779NC ✈ 06-Jul-2013 ✈ KDTW - KBNA

Flight Track Log - Related Links

Times and Time Zones

All times are in EDT time to prevent confusion due to time zone crossing. See the N779NC flight status page for this flight to view local times or setup timezone preferences in your user account.

Time Position Orientation Groundspeed Altitude Reporting Facility
EDT Latitude Longitude Course Direction KTS MPH feet Rate Location/Type
07:49AM 42.2017 -83.3553 180° South 144 166 1,600  Level Cleveland Center
07:50AM 42.1261 -83.3717 189° South 213 245 5,000 2,520 Climbing Cleveland Center
07:51AM 42.0611 -83.3911 193° South 248 285 7,800 2,640 Climbing Cleveland Center
07:52AM 41.8363 -83.5782 180° South  Level Estimated
07:52AM 41.9981 -83.4053 189° South 277 319 10,200  Level Cleveland Center
07:53AM 41.7422 -83.6340 180° South  Level Estimated
07:53AM 41.9206 -83.4297 193° South 283 326 12,100  Level Cleveland Center
07:54AM 41.6481 -83.6896 180° South  Level Estimated
07:54AM 41.8300 -83.4592 194° South 303 349 13,200  Level Cleveland Center
07:55AM 41.7272 -83.4908 193° South 344 396 15,100 2,100 Climbing Cleveland Center
07:56AM 41.6261 -83.5278 195° South 369 425 17,500 2,340 Climbing Cleveland Center
07:57AM 41.5228 -83.5675 196° South 382 440 19,800 2,340 Climbing Cleveland Center
07:58AM 41.4258 -83.6075 197° South 382 440 22,200 2,400 Climbing Cleveland Center
07:59AM 41.3289 -83.6497 198° South 377 434 24,600 1,980 Climbing Cleveland Center
08:00AM 41.2361 -83.6842 196° South 363 418 26,200 1,200 Climbing Cleveland Center
08:01AM 41.1353 -83.7153 193° South 363 418 27,100 780 Climbing Cleveland Center
08:02AM 41.0642 -83.7394 194° South 384 442 27,700 1,200 Climbing Indianapolis Center
08:03AM 40.9475 -83.7828 196° South 392 451 29,400 1,500 Climbing Indianapolis Center
08:04AM 40.8447 -83.8258 198° South 387 445 30,800 1,560 Climbing Indianapolis Center
08:05AM 40.7444 -83.8706 199° South 380 437 32,600 1,320 Climbing Indianapolis Center
08:06AM 40.6475 -83.9139 199° South 368 423 33,500 660 Climbing Indianapolis Center
08:07AM 40.5486 -83.9583 199° South 372 428 34,000 240 Climbing Indianapolis Center
08:08AM 40.4444 -84.0003 197° South 386 444 34,000  Level Indianapolis Center
08:09AM 40.3331 -84.0192 187° South 399 459 34,000  Level Indianapolis Center
08:10AM 40.2222 -84.0436 190° South 403 464 34,000  Level Indianapolis Center
08:11AM 40.1117 -84.0700 190° South 402 463 34,000  Level Indianapolis Center
08:12AM 39.9992 -84.0811 184° South 403 464 34,000  Level Indianapolis Center
08:13AM 39.8878 -84.1028 188° South 403 464 34,000  Level Indianapolis Center
08:14AM 39.7767 -84.1236 188° South 402 463 34,000  Level Indianapolis Center
08:15AM 39.6650 -84.1408 187° South 403 464 34,000  Level Indianapolis Center
08:16AM 39.5328 -84.1483 183° South 404 465 34,000  Level Indianapolis Center
08:17AM 39.4197 -84.1553 183° South 406 467 34,000  Level Indianapolis Center
08:18AM 39.3058 -84.1692 185° South 408 470 34,000  Level Indianapolis Center
08:19AM 39.1922 -84.1842 186° South 408 470 34,000  Level Indianapolis Center
08:20AM 39.0783 -84.2067 189° South 412 474 34,000  Level Indianapolis Center
08:21AM 38.9667 -84.2256 187° South 403 464 34,000  Level Indianapolis Center
08:22AM 38.8553 -84.2564 192° South 405 466 34,000  Level Indianapolis Center
08:23AM 38.7456 -84.2900 193° South 401 461 34,000  Level Indianapolis Center
08:24AM 38.6317 -84.3244 193° South 404 465 34,100  Climbing Indianapolis Center
08:25AM 38.5203 -84.3406 186° South 402 463 34,000 -60 Descending Indianapolis Center
08:26AM 38.4086 -84.3583 187° South 403 464 34,000  Level Indianapolis Center
08:27AM 38.2989 -84.3761 187° South 398 458 34,000  Level Indianapolis Center
08:28AM 38.1878 -84.4011 190° South 401 461 34,100 -240 Climbing Indianapolis Center
08:29AM 38.0756 -84.4303 192° South 407 468 33,600 -780 Descending Indianapolis Center
08:30AM 37.9647 -84.4636 193° South 409 471 32,600 -780 Descending Indianapolis Center
08:31AM 37.8461 -84.5181 200° South 391 450 32,100 -300 Descending Indianapolis Center
08:32AM 37.7458 -84.5733 204° Southwest 390 449 32,100  Level Indianapolis Center
08:33AM 37.6486 -84.6297 205° Southwest 385 443 32,100  Level Indianapolis Center
08:34AM 37.5503 -84.6881 205° Southwest 387 445 32,100  Level Indianapolis Center
08:35AM 37.4547 -84.7439 205° Southwest 380 437 32,100  Level Indianapolis Center
08:36AM 37.3558 -84.7950 202° Southwest 384 442 32,100 -300 Level Indianapolis Center
08:37AM 37.2561 -84.8367 198° South 380 437 31,500 -1,140 Descending Indianapolis Center
08:38AM 37.1472 -84.8767 196° South 406 467 29,800 -1,680 Descending Indianapolis Center
08:39AM 37.0339 -84.9225 198° South 411 473 28,200 -1,680 Descending Indianapolis Center
08:40AM 36.9306 -84.9792 204° Southwest 411 473 26,500 -1,800 Descending Indianapolis Center
08:41AM 36.8736 -85.1033 240° Southwest 427 491 24,600 -2,220 Descending Indianapolis Center
08:42AM 36.8356 -85.2417 251° West 426 490 22,000 -2,100 Descending Indianapolis Center
08:43AM 36.7919 -85.4036 251° West 412 474 20,300 -960 Descending Indianapolis Center
08:45AM 36.7536 -85.5303 249° West 396 456 20,100 -300 Descending Indianapolis Center
08:46AM 36.7119 -85.6525 247° West 388 447 19,700 -1,920 Descending Indianapolis Center
08:47AM 36.6681 -85.7703 245° Southwest 380 437 16,300 -3,180 Descending Indianapolis Center
08:48AM 36.6186 -85.8761 240° Southwest 370 426 13,300 -2,280 Descending Indianapolis Center
08:49AM 36.5719 -85.9736 239° Southwest 331 381 11,700 -1,140 Descending Indianapolis Center
08:50AM 36.5236 -86.0661 237° Southwest 318 366 11,000 -300 Descending Indianapolis Center
08:51AM 36.4697 -86.1558 233° Southwest 318 366 11,100  Climbing Indianapolis Center
08:52AM 36.3997 -86.2433 225° Southwest 348 400 11,100 -300 Level Indianapolis Center
08:53AM 36.3400 -86.3206 226° Southwest 311 358 10,500 -900 Descending Indianapolis Center
08:54AM 36.2872 -86.3997 230° Southwest 270 311 9,300 -1,500 Descending Memphis Center
08:55AM 36.2456 -86.4633 231° Southwest 245 282 7,400 -1,920 Descending Memphis Center